sensor_id;sensor_type;location;lat;lon;timestamp;temperature;humidity
65472;DHT22;52068;50.710;14.492;2022-10-04T00:01:52;22.67;58.15
65472;DHT22;52068;50.710;14.492;2022-10-04T00:06:57;22.72;57.92
65472;DHT22;52068;50.710;14.492;2022-10-04T00:09:25;22.70;58.06
65472;DHT22;52068;50.710;14.492;2022-10-04T00:11:52;22.70;57.71
65472;DHT22;52068;50.710;14.492;2022-10-04T00:14:19;22.70;57.71
65472;DHT22;52068;50.710;14.492;2022-10-04T00:16:46;22.70;58.19
65472;DHT22;52068;50.710;14.492;2022-10-04T00:37:00;22.56;58.41
65472;DHT22;52068;50.710;14.492;2022-10-04T00:44:45;22.53;58.17
65472;DHT22;52068;50.710;14.492;2022-10-04T00:47:33;22.52;58.42
65472;DHT22;52068;50.710;14.492;2022-10-04T00:50:00;22.53;58.00
65472;DHT22;52068;50.710;14.492;2022-10-04T00:52:30;22.53;58.13
65472;DHT22;52068;50.710;14.492;2022-10-04T00:54:57;22.57;58.11
65472;DHT22;52068;50.710;14.492;2022-10-04T00:57:27;22.57;58.06
65472;DHT22;52068;50.710;14.492;2022-10-04T01:00:00;22.63;58.07
65472;DHT22;52068;50.710;14.492;2022-10-04T01:02:30;22.62;57.99
65472;DHT22;52068;50.710;14.492;2022-10-04T01:04:59;22.64;58.14
65472;DHT22;52068;50.710;14.492;2022-10-04T01:07:26;22.64;57.83
65472;DHT22;52068;50.710;14.492;2022-10-04T01:09:54;22.62;58.01
65472;DHT22;52068;50.710;14.492;2022-10-04T01:15:03;22.64;57.87
65472;DHT22;52068;50.710;14.492;2022-10-04T01:17:29;22.67;57.63
65472;DHT22;52068;50.710;14.492;2022-10-04T01:19:55;22.62;57.53
65472;DHT22;52068;50.710;14.492;2022-10-04T01:22:40;22.60;57.69
65472;DHT22;52068;50.710;14.492;2022-10-04T01:25:06;22.64;58.03
65472;DHT22;52068;50.710;14.492;2022-10-04T01:27:36;22.62;58.08
65472;DHT22;52068;50.710;14.492;2022-10-04T01:30:14;22.56;58.07
65472;DHT22;52068;50.710;14.492;2022-10-04T01:32:40;22.53;57.88
65472;DHT22;52068;50.710;14.492;2022-10-04T01:35:06;22.55;58.25
65472;DHT22;52068;50.710;14.492;2022-10-04T01:37:32;22.53;58.29
65472;DHT22;52068;50.710;14.492;2022-10-04T01:39:57;22.53;58.22
65472;DHT22;52068;50.710;14.492;2022-10-04T01:42:28;22.52;58.12
65472;DHT22;52068;50.710;14.492;2022-10-04T01:44:56;22.52;58.26
65472;DHT22;52068;50.710;14.492;2022-10-04T01:47:58;22.52;58.30
65472;DHT22;52068;50.710;14.492;2022-10-04T01:50:30;22.53;58.34
65472;DHT22;52068;50.710;14.492;2022-10-04T01:52:58;22.51;57.91
65472;DHT22;52068;50.710;14.492;2022-10-04T01:55:28;22.51;57.83
65472;DHT22;52068;50.710;14.492;2022-10-04T01:58:17;22.53;57.96
65472;DHT22;52068;50.710;14.492;2022-10-04T02:00:44;22.55;57.78
65472;DHT22;52068;50.710;14.492;2022-10-04T02:06:04;22.62;57.55
65472;DHT22;52068;50.710;14.492;2022-10-04T02:08:32;22.64;57.24
65472;DHT22;52068;50.710;14.492;2022-10-04T02:10:59;22.66;57.59
65472;DHT22;52068;50.710;14.492;2022-10-04T02:13:25;22.66;57.48
65472;DHT22;52068;50.710;14.492;2022-10-04T02:15:53;22.64;57.48
65472;DHT22;52068;50.710;14.492;2022-10-04T02:18:19;22.63;57.44
65472;DHT22;52068;50.710;14.492;2022-10-04T02:20:45;22.67;57.36
65472;DHT22;52068;50.710;14.492;2022-10-04T02:23:12;22.64;57.24
65472;DHT22;52068;50.710;14.492;2022-10-04T02:25:40;22.63;57.46
65472;DHT22;52068;50.710;14.492;2022-10-04T02:28:08;22.64;57.13
65472;DHT22;52068;50.710;14.492;2022-10-04T02:30:37;22.63;57.46
65472;DHT22;52068;50.710;14.492;2022-10-04T02:33:04;22.66;57.35
65472;DHT22;52068;50.710;14.492;2022-10-04T02:38:02;22.66;57.51
65472;DHT22;52068;50.710;14.492;2022-10-04T02:40:32;22.66;57.15
65472;DHT22;52068;50.710;14.492;2022-10-04T02:43:00;22.64;57.05
65472;DHT22;52068;50.710;14.492;2022-10-04T02:48:03;22.64;57.45
65472;DHT22;52068;50.710;14.492;2022-10-04T02:50:32;22.67;57.29
65472;DHT22;52068;50.710;14.492;2022-10-04T02:53:02;22.67;57.46
65472;DHT22;52068;50.710;14.492;2022-10-04T02:55:33;22.60;57.35
65472;DHT22;52068;50.710;14.492;2022-10-04T02:58:00;22.57;57.46
65472;DHT22;52068;50.710;14.492;2022-10-04T03:00:26;22.59;57.57
65472;DHT22;52068;50.710;14.492;2022-10-04T03:05:36;22.63;57.44
65472;DHT22;52068;50.710;14.492;2022-10-04T03:08:03;22.67;57.08
65472;DHT22;52068;50.710;14.492;2022-10-04T03:10:28;22.69;57.49
65472;DHT22;52068;50.710;14.492;2022-10-04T03:12:54;22.69;57.44
65472;DHT22;52068;50.710;14.492;2022-10-04T03:15:19;22.69;57.29
65472;DHT22;52068;50.710;14.492;2022-10-04T03:17:44;22.64;57.09
65472;DHT22;52068;50.710;14.492;2022-10-04T03:20:10;22.66;57.23
65472;DHT22;52068;50.710;14.492;2022-10-04T03:22:40;22.67;56.88
65472;DHT22;52068;50.710;14.492;2022-10-04T03:25:08;22.69;57.35
65472;DHT22;52068;50.710;14.492;2022-10-04T03:27:39;22.73;56.85
65472;DHT22;52068;50.710;14.492;2022-10-04T03:30:04;22.73;57.09
65472;DHT22;52068;50.710;14.492;2022-10-04T03:32:30;22.73;56.76
65472;DHT22;52068;50.710;14.492;2022-10-04T03:34:59;22.76;57.17
65472;DHT22;52068;50.710;14.492;2022-10-04T03:37:26;22.73;56.54
65472;DHT22;52068;50.710;14.492;2022-10-04T03:39:53;22.76;57.20
65472;DHT22;52068;50.710;14.492;2022-10-04T03:42:25;22.69;57.34
65472;DHT22;52068;50.710;14.492;2022-10-04T03:44:52;22.67;57.02
65472;DHT22;52068;50.710;14.492;2022-10-04T03:47:20;22.67;56.98
65472;DHT22;52068;50.710;14.492;2022-10-04T03:49:46;22.70;57.04
65472;DHT22;52068;50.710;14.492;2022-10-04T03:52:16;22.72;57.14
65472;DHT22;52068;50.710;14.492;2022-10-04T03:54:41;22.66;56.83
65472;DHT22;52068;50.710;14.492;2022-10-04T03:57:07;22.64;56.82
65472;DHT22;52068;50.710;14.492;2022-10-04T03:59:32;22.63;56.86
65472;DHT22;52068;50.710;14.492;2022-10-04T04:04:35;22.67;57.22
65472;DHT22;52068;50.710;14.492;2022-10-04T04:07:04;22.66;56.89
65472;DHT22;52068;50.710;14.492;2022-10-04T04:09:47;22.69;57.15
65472;DHT22;52068;50.710;14.492;2022-10-04T04:12:22;22.64;56.66
65472;DHT22;52068;50.710;14.492;2022-10-04T04:14:50;22.63;57.03
65472;DHT22;52068;50.710;14.492;2022-10-04T04:17:17;22.63;57.13
65472;DHT22;52068;50.710;14.492;2022-10-04T04:19:43;22.60;56.99
65472;DHT22;52068;50.710;14.492;2022-10-04T04:22:10;22.63;56.96
65472;DHT22;52068;50.710;14.492;2022-10-04T04:24:39;22.64;56.88
65472;DHT22;52068;50.710;14.492;2022-10-04T04:27:05;22.67;56.56
65472;DHT22;52068;50.710;14.492;2022-10-04T04:32:03;22.67;56.66
65472;DHT22;52068;50.710;14.492;2022-10-04T04:34:30;22.66;56.58
65472;DHT22;52068;50.710;14.492;2022-10-04T04:36:57;22.67;56.80
65472;DHT22;52068;50.710;14.492;2022-10-04T04:39:23;22.70;56.70
65472;DHT22;52068;50.710;14.492;2022-10-04T04:41:58;22.64;56.70
65472;DHT22;52068;50.710;14.492;2022-10-04T04:44:24;22.67;56.16
65472;DHT22;52068;50.710;14.492;2022-10-04T04:46:50;22.66;56.57
65472;DHT22;52068;50.710;14.492;2022-10-04T04:49:15;22.70;56.97
65472;DHT22;52068;50.710;14.492;2022-10-04T04:51:45;22.74;56.74
65472;DHT22;52068;50.710;14.492;2022-10-04T04:54:11;22.72;56.25
65472;DHT22;52068;50.710;14.492;2022-10-04T04:56:36;22.72;56.25
65472;DHT22;52068;50.710;14.492;2022-10-04T04:59:02;22.67;56.60
65472;DHT22;52068;50.710;14.492;2022-10-04T05:01:34;22.63;57.01
65472;DHT22;52068;50.710;14.492;2022-10-04T05:06:28;22.60;56.63
65472;DHT22;52068;50.710;14.492;2022-10-04T05:08:54;22.57;56.79
65472;DHT22;52068;50.710;14.492;2022-10-04T05:11:20;22.57;56.97
65472;DHT22;52068;50.710;14.492;2022-10-04T05:13:50;22.55;57.53
65472;DHT22;52068;50.710;14.492;2022-10-04T05:16:20;22.56;57.58
65472;DHT22;52068;50.710;14.492;2022-10-04T05:18:47;22.55;57.72
65472;DHT22;52068;50.710;14.492;2022-10-04T05:23:38;22.52;57.63
65472;DHT22;52068;50.710;14.492;2022-10-04T05:26:03;22.59;57.46
65472;DHT22;52068;50.710;14.492;2022-10-04T05:28:33;22.63;56.92
65472;DHT22;52068;50.710;14.492;2022-10-04T05:31:02;22.64;56.75
65472;DHT22;52068;50.710;14.492;2022-10-04T05:41:23;22.76;56.22
65472;DHT22;52068;50.710;14.492;2022-10-04T05:43:52;22.76;56.31
65472;DHT22;52068;50.710;14.492;2022-10-04T05:46:27;22.79;56.23
65472;DHT22;52068;50.710;14.492;2022-10-04T05:49:14;22.77;56.36
65472;DHT22;52068;50.710;14.492;2022-10-04T05:51:50;22.74;55.78
65472;DHT22;52068;50.710;14.492;2022-10-04T05:54:21;22.82;54.87
65472;DHT22;52068;50.710;14.492;2022-10-04T06:07:14;22.82;54.61
65472;DHT22;52068;50.710;14.492;2022-10-04T06:22:55;22.92;54.07
65472;DHT22;52068;50.710;14.492;2022-10-04T06:25:29;22.96;54.21
65472;DHT22;52068;50.710;14.492;2022-10-04T06:30:50;22.93;54.03
65472;DHT22;52068;50.710;14.492;2022-10-04T06:46:39;23.03;53.98
65472;DHT22;52068;50.710;14.492;2022-10-04T07:05:17;22.94;54.09
65472;DHT22;52068;50.710;14.492;2022-10-04T07:07:48;23.00;54.13
65472;DHT22;52068;50.710;14.492;2022-10-04T07:15:31;23.11;54.70
65472;DHT22;52068;50.710;14.492;2022-10-04T07:17:58;23.07;54.02
65472;DHT22;52068;50.710;14.492;2022-10-04T07:20:30;23.06;53.35
65472;DHT22;52068;50.710;14.492;2022-10-04T07:23:04;22.99;52.65
65472;DHT22;52068;50.710;14.492;2022-10-04T07:25:34;22.94;52.18
65472;DHT22;52068;50.710;14.492;2022-10-04T07:30:51;22.86;52.03
65472;DHT22;52068;50.710;14.492;2022-10-04T07:33:21;22.83;51.86
65472;DHT22;52068;50.710;14.492;2022-10-04T07:35:48;22.79;51.98
65472;DHT22;52068;50.710;14.492;2022-10-04T07:43:29;22.72;51.69
65472;DHT22;52068;50.710;14.492;2022-10-04T07:46:31;22.67;51.68
65472;DHT22;52068;50.710;14.492;2022-10-04T07:48:46;22.67;51.74
65472;DHT22;52068;50.710;14.492;2022-10-04T07:51:18;22.66;51.66
65472;DHT22;52068;50.710;14.492;2022-10-04T08:01:41;22.67;52.19
65472;DHT22;52068;50.710;14.492;2022-10-04T08:04:13;22.69;52.42
65472;DHT22;52068;50.710;14.492;2022-10-04T08:09:36;22.70;52.28
65472;DHT22;52068;50.710;14.492;2022-10-04T08:14:54;22.70;52.52
65472;DHT22;52068;50.710;14.492;2022-10-04T08:20:21;22.73;52.43
65472;DHT22;52068;50.710;14.492;2022-10-04T08:44:10;22.86;52.39
65472;DHT22;52068;50.710;14.492;2022-10-04T08:49:21;22.89;52.38
65472;DHT22;52068;50.710;14.492;2022-10-04T08:51:57;22.87;52.56
65472;DHT22;52068;50.710;14.492;2022-10-04T09:07:54;22.96;52.45
65472;DHT22;52068;50.710;14.492;2022-10-04T09:15:53;23.04;52.28
65472;DHT22;52068;50.710;14.492;2022-10-04T09:18:21;23.07;52.30
65472;DHT22;52068;50.710;14.492;2022-10-04T09:31:03;23.00;52.93
65472;DHT22;52068;50.710;14.492;2022-10-04T09:49:38;22.96;52.89
65472;DHT22;52068;50.710;14.492;2022-10-04T09:52:26;23.00;52.98
65472;DHT22;52068;50.710;14.492;2022-10-04T09:55:16;23.02;53.05
65472;DHT22;52068;50.710;14.492;2022-10-04T10:05:33;23.04;53.00
65472;DHT22;52068;50.710;14.492;2022-10-04T10:21:18;23.07;53.20
65472;DHT22;52068;50.710;14.492;2022-10-04T10:31:41;23.18;52.78
65472;DHT22;52068;50.710;14.492;2022-10-04T10:36:52;23.21;52.79
65472;DHT22;52068;50.710;14.492;2022-10-04T10:39:41;23.21;52.91
65472;DHT22;52068;50.710;14.492;2022-10-04T10:55:54;23.28;53.34
65472;DHT22;52068;50.710;14.492;2022-10-04T11:06:12;23.34;53.61
65472;DHT22;52068;50.710;14.492;2022-10-04T11:29:26;23.66;53.09
65472;DHT22;52068;50.710;14.492;2022-10-04T11:52:56;23.71;53.16
65472;DHT22;52068;50.710;14.492;2022-10-04T11:58:15;23.78;52.75
65472;DHT22;52068;50.710;14.492;2022-10-04T12:14:29;23.98;52.43
65472;DHT22;52068;50.710;14.492;2022-10-04T12:17:20;23.98;52.66
65472;DHT22;52068;50.710;14.492;2022-10-04T12:27:44;24.13;51.90
65472;DHT22;52068;50.710;14.492;2022-10-04T12:32:56;24.15;52.18
65472;DHT22;52068;50.710;14.492;2022-10-04T12:48:04;24.10;52.18
65472;DHT22;52068;50.710;14.492;2022-10-04T12:53:27;24.15;52.14
65472;DHT22;52068;50.710;14.492;2022-10-04T12:58:50;24.16;52.04
65472;DHT22;52068;50.710;14.492;2022-10-04T13:01:21;24.20;51.48
65472;DHT22;52068;50.710;14.492;2022-10-04T13:06:19;24.24;51.46
65472;DHT22;52068;50.710;14.492;2022-10-04T13:08:52;24.32;51.45
65472;DHT22;52068;50.710;14.492;2022-10-04T13:14:02;24.36;51.28
65472;DHT22;52068;50.710;14.492;2022-10-04T13:24:12;24.49;50.81
65472;DHT22;52068;50.710;14.492;2022-10-04T13:26:51;24.56;50.76
65472;DHT22;52068;50.710;14.492;2022-10-04T13:34:42;24.60;50.51
65472;DHT22;52068;50.710;14.492;2022-10-04T13:52:54;24.53;50.69
65472;DHT22;52068;50.710;14.492;2022-10-04T14:02:10;24.46;50.34
65472;DHT22;52068;50.710;14.492;2022-10-04T14:07:01;24.44;50.49
65472;DHT22;52068;50.710;14.492;2022-10-04T14:56:32;24.85;49.75
65472;DHT22;52068;50.710;14.492;2022-10-04T14:59:03;24.84;49.84
65472;DHT22;52068;50.710;14.492;2022-10-04T15:01:31;24.87;49.75
65472;DHT22;52068;50.710;14.492;2022-10-04T15:04:12;24.84;49.77
65472;DHT22;52068;50.710;14.492;2022-10-04T15:06:50;24.83;49.57
65472;DHT22;52068;50.710;14.492;2022-10-04T15:11:48;24.81;49.78
65472;DHT22;52068;50.710;14.492;2022-10-04T15:17:03;24.83;50.10
65472;DHT22;52068;50.710;14.492;2022-10-04T15:19:36;24.80;49.71
65472;DHT22;52068;50.710;14.492;2022-10-04T15:22:24;24.80;50.16
65472;DHT22;52068;50.710;14.492;2022-10-04T15:24:51;24.81;49.69
65472;DHT22;52068;50.710;14.492;2022-10-04T15:30:02;24.83;49.64
65472;DHT22;52068;50.710;14.492;2022-10-04T15:45:45;24.77;49.49
65472;DHT22;52068;50.710;14.492;2022-10-04T16:04:15;24.60;50.01
65472;DHT22;52068;50.710;14.492;2022-10-04T16:06:56;24.60;50.00
65472;DHT22;52068;50.710;14.492;2022-10-04T16:11:56;24.59;50.05
65472;DHT22;52068;50.710;14.492;2022-10-04T16:17:05;24.60;50.28
65472;DHT22;52068;50.710;14.492;2022-10-04T16:22:25;24.53;50.36
65472;DHT22;52068;50.710;14.492;2022-10-04T16:24:58;24.54;50.41
65472;DHT22;52068;50.710;14.492;2022-10-04T16:27:44;24.47;50.50
65472;DHT22;52068;50.710;14.492;2022-10-04T16:33:34;24.39;50.79
65472;DHT22;52068;50.710;14.492;2022-10-04T16:35:37;24.37;51.02
65472;DHT22;52068;50.710;14.492;2022-10-04T16:40:46;24.32;51.26
65472;DHT22;52068;50.710;14.492;2022-10-04T16:43:25;24.27;51.35
65472;DHT22;52068;50.710;14.492;2022-10-04T16:56:13;24.16;52.18
65472;DHT22;52068;50.710;14.492;2022-10-04T16:58:41;24.15;52.16
65472;DHT22;52068;50.710;14.492;2022-10-04T17:12:04;23.99;52.03
65472;DHT22;52068;50.710;14.492;2022-10-04T17:16:58;23.96;52.02
65472;DHT22;52068;50.710;14.492;2022-10-04T17:19:36;23.90;52.15
65472;DHT22;52068;50.710;14.492;2022-10-04T17:22:11;23.88;52.10
65472;DHT22;52068;50.710;14.492;2022-10-04T17:45:30;23.74;52.56
65472;DHT22;52068;50.710;14.492;2022-10-04T17:51:07;23.71;52.84
65472;DHT22;52068;50.710;14.492;2022-10-04T17:53:50;23.68;52.97
65472;DHT22;52068;50.710;14.492;2022-10-04T17:59:07;23.66;53.17
65472;DHT22;52068;50.710;14.492;2022-10-04T18:01:43;23.65;53.27
65472;DHT22;52068;50.710;14.492;2022-10-04T18:09:25;23.61;53.40
65472;DHT22;52068;50.710;14.492;2022-10-04T18:11:52;23.62;53.41
65472;DHT22;52068;50.710;14.492;2022-10-04T18:17:07;23.57;53.85
65472;DHT22;52068;50.710;14.492;2022-10-04T18:19:41;23.57;53.65
65472;DHT22;52068;50.710;14.492;2022-10-04T18:22:15;23.55;53.72
65472;DHT22;52068;50.710;14.492;2022-10-04T18:24:41;23.50;53.71
65472;DHT22;52068;50.710;14.492;2022-10-04T18:27:20;23.48;53.83
65472;DHT22;52068;50.710;14.492;2022-10-04T18:29:57;23.45;53.91
65472;DHT22;52068;50.710;14.492;2022-10-04T18:34:54;23.41;53.92
65472;DHT22;52068;50.710;14.492;2022-10-04T18:37:31;23.40;54.04
65472;DHT22;52068;50.710;14.492;2022-10-04T18:40:17;23.35;54.06
65472;DHT22;52068;50.710;14.492;2022-10-04T18:42:48;23.35;54.07
65472;DHT22;52068;50.710;14.492;2022-10-04T18:47:44;23.33;54.26
65472;DHT22;52068;50.710;14.492;2022-10-04T18:50:13;23.33;54.17
65472;DHT22;52068;50.710;14.492;2022-10-04T18:52:57;23.28;54.15
65472;DHT22;52068;50.710;14.492;2022-10-04T19:04:05;23.24;54.28
65472;DHT22;52068;50.710;14.492;2022-10-04T19:06:33;23.24;54.20
65472;DHT22;52068;50.710;14.492;2022-10-04T19:11:56;23.14;54.33
65472;DHT22;52068;50.710;14.492;2022-10-04T19:17:00;23.15;54.46
65472;DHT22;52068;50.710;14.492;2022-10-04T19:20:09;23.10;54.49
65472;DHT22;52068;50.710;14.492;2022-10-04T19:27:45;23.03;54.66
65472;DHT22;52068;50.710;14.492;2022-10-04T19:33:14;23.00;55.06
65472;DHT22;52068;50.710;14.492;2022-10-04T19:38:10;23.02;54.71
65472;DHT22;52068;50.710;14.492;2022-10-04T19:40:44;23.03;54.72
65472;DHT22;52068;50.710;14.492;2022-10-04T19:48:19;23.02;54.42
65472;DHT22;52068;50.710;14.492;2022-10-04T19:50:47;23.00;54.48
65472;DHT22;52068;50.710;14.492;2022-10-04T19:55:57;22.97;54.92
65472;DHT22;52068;50.710;14.492;2022-10-04T20:01:16;22.92;54.67
65472;DHT22;52068;50.710;14.492;2022-10-04T20:03:43;22.86;54.65
65472;DHT22;52068;50.710;14.492;2022-10-04T20:06:09;22.86;54.62
65472;DHT22;52068;50.710;14.492;2022-10-04T20:19:18;22.70;55.25
65472;DHT22;52068;50.710;14.492;2022-10-04T20:21:45;22.66;55.21
65472;DHT22;52068;50.710;14.492;2022-10-04T20:24:17;22.64;55.31
65472;DHT22;52068;50.710;14.492;2022-10-04T20:26:59;22.62;55.34
65472;DHT22;52068;50.710;14.492;2022-10-04T20:32:02;22.60;55.41
65472;DHT22;52068;50.710;14.492;2022-10-04T20:34:31;22.59;55.44
65472;DHT22;52068;50.710;14.492;2022-10-04T20:36:57;22.57;55.47
65472;DHT22;52068;50.710;14.492;2022-10-04T20:42:06;22.53;55.56
65472;DHT22;52068;50.710;14.492;2022-10-04T20:44:45;22.53;55.60
65472;DHT22;52068;50.710;14.492;2022-10-04T20:47:28;22.51;55.58
65472;DHT22;52068;50.710;14.492;2022-10-04T20:49:54;22.49;55.50
65472;DHT22;52068;50.710;14.492;2022-10-04T20:52:28;22.48;55.50
65472;DHT22;52068;50.710;14.492;2022-10-04T20:54:54;22.48;55.50
65472;DHT22;52068;50.710;14.492;2022-10-04T20:57:21;22.48;55.57
65472;DHT22;52068;50.710;14.492;2022-10-04T20:59:47;22.45;55.62
65472;DHT22;52068;50.710;14.492;2022-10-04T21:02:16;22.45;55.61
65472;DHT22;52068;50.710;14.492;2022-10-04T21:04:41;22.42;55.61
65472;DHT22;52068;50.710;14.492;2022-10-04T21:07:11;22.42;55.77
65472;DHT22;52068;50.710;14.492;2022-10-04T21:09:37;22.42;55.64
65472;DHT22;52068;50.710;14.492;2022-10-04T21:12:03;22.41;55.83
65472;DHT22;52068;50.710;14.492;2022-10-04T21:14:33;22.38;55.91
65472;DHT22;52068;50.710;14.492;2022-10-04T21:16:59;22.39;55.92
65472;DHT22;52068;50.710;14.492;2022-10-04T21:22:00;22.35;55.70
65472;DHT22;52068;50.710;14.492;2022-10-04T21:24:26;22.36;55.71
65472;DHT22;52068;50.710;14.492;2022-10-04T21:26:55;22.36;55.79
65472;DHT22;52068;50.710;14.492;2022-10-04T21:29:23;22.36;55.84
65472;DHT22;52068;50.710;14.492;2022-10-04T21:31:48;22.32;55.75
65472;DHT22;52068;50.710;14.492;2022-10-04T21:34:14;22.33;55.77
65472;DHT22;52068;50.710;14.492;2022-10-04T21:36:39;22.35;55.88
65472;DHT22;52068;50.710;14.492;2022-10-04T21:39:04;22.31;55.93
65472;DHT22;52068;50.710;14.492;2022-10-04T21:41:29;22.31;56.02
65472;DHT22;52068;50.710;14.492;2022-10-04T21:43:55;22.31;56.06
65472;DHT22;52068;50.710;14.492;2022-10-04T21:46:20;22.29;56.04
65472;DHT22;52068;50.710;14.492;2022-10-04T21:48:45;22.29;56.27
65472;DHT22;52068;50.710;14.492;2022-10-04T21:51:10;22.25;56.13
65472;DHT22;52068;50.710;14.492;2022-10-04T21:53:36;22.26;56.19
65472;DHT22;52068;50.710;14.492;2022-10-04T21:56:01;22.28;56.21
65472;DHT22;52068;50.710;14.492;2022-10-04T21:58:27;22.25;56.36
65472;DHT22;52068;50.710;14.492;2022-10-04T22:00:52;22.25;56.30
65472;DHT22;52068;50.710;14.492;2022-10-04T22:03:18;22.21;56.22
65472;DHT22;52068;50.710;14.492;2022-10-04T22:05:43;22.21;56.35
65472;DHT22;52068;50.710;14.492;2022-10-04T22:08:08;22.19;56.40
65472;DHT22;52068;50.710;14.492;2022-10-04T22:10:33;22.19;56.46
65472;DHT22;52068;50.710;14.492;2022-10-04T22:12:59;22.19;56.43
65472;DHT22;52068;50.710;14.492;2022-10-04T22:15:25;22.21;56.57
65472;DHT22;52068;50.710;14.492;2022-10-04T22:17:50;22.16;56.68
65472;DHT22;52068;50.710;14.492;2022-10-04T22:20:15;22.18;56.53
65472;DHT22;52068;50.710;14.492;2022-10-04T22:22:41;22.16;56.64
65472;DHT22;52068;50.710;14.492;2022-10-04T22:25:12;22.18;56.19
65472;DHT22;52068;50.710;14.492;2022-10-04T22:27:37;22.16;56.49
65472;DHT22;52068;50.710;14.492;2022-10-04T22:30:02;22.16;56.37
65472;DHT22;52068;50.710;14.492;2022-10-04T22:32:28;22.14;56.36
65472;DHT22;52068;50.710;14.492;2022-10-04T22:34:57;22.15;56.44
65472;DHT22;52068;50.710;14.492;2022-10-04T22:37:24;22.15;56.04
65472;DHT22;52068;50.710;14.492;2022-10-04T22:39:52;22.16;56.00
65472;DHT22;52068;50.710;14.492;2022-10-04T22:42:17;22.18;55.95
65472;DHT22;52068;50.710;14.492;2022-10-04T22:44:43;22.18;56.01
65472;DHT22;52068;50.710;14.492;2022-10-04T22:47:12;22.21;55.98
65472;DHT22;52068;50.710;14.492;2022-10-04T22:49:38;22.14;56.00
65472;DHT22;52068;50.710;14.492;2022-10-04T22:52:23;22.15;56.17
65472;DHT22;52068;50.710;14.492;2022-10-04T22:54:50;22.15;56.12
65472;DHT22;52068;50.710;14.492;2022-10-04T22:57:16;22.12;56.15
65472;DHT22;52068;50.710;14.492;2022-10-04T22:59:43;22.11;56.23
65472;DHT22;52068;50.710;14.492;2022-10-04T23:02:10;22.11;56.17
65472;DHT22;52068;50.710;14.492;2022-10-04T23:04:36;22.11;56.32
65472;DHT22;52068;50.710;14.492;2022-10-04T23:07:02;22.08;56.24
65472;DHT22;52068;50.710;14.492;2022-10-04T23:09:27;22.11;56.24
65472;DHT22;52068;50.710;14.492;2022-10-04T23:11:52;22.08;56.27
65472;DHT22;52068;50.710;14.492;2022-10-04T23:14:18;22.05;56.12
65472;DHT22;52068;50.710;14.492;2022-10-04T23:16:46;22.06;56.17
65472;DHT22;52068;50.710;14.492;2022-10-04T23:19:12;22.04;56.29
65472;DHT22;52068;50.710;14.492;2022-10-04T23:21:39;22.02;56.32
65472;DHT22;52068;50.710;14.492;2022-10-04T23:24:12;22.04;56.25
65472;DHT22;52068;50.710;14.492;2022-10-04T23:26:42;22.01;56.28
65472;DHT22;52068;50.710;14.492;2022-10-04T23:29:15;22.01;56.11
65472;DHT22;52068;50.710;14.492;2022-10-04T23:31:41;21.98;56.10
65472;DHT22;52068;50.710;14.492;2022-10-04T23:34:12;22.01;56.12
65472;DHT22;52068;50.710;14.492;2022-10-04T23:36:38;22.02;56.12
65472;DHT22;52068;50.710;14.492;2022-10-04T23:39:05;22.00;56.04
65472;DHT22;52068;50.710;14.492;2022-10-04T23:41:33;21.97;55.94
65472;DHT22;52068;50.710;14.492;2022-10-04T23:43:58;21.98;55.88
65472;DHT22;52068;50.710;14.492;2022-10-04T23:46:23;22.00;55.82
65472;DHT22;52068;50.710;14.492;2022-10-04T23:48:48;22.00;55.93
65472;DHT22;52068;50.710;14.492;2022-10-04T23:51:15;22.00;55.88
65472;DHT22;52068;50.710;14.492;2022-10-04T23:53:41;22.00;55.81
65472;DHT22;52068;50.710;14.492;2022-10-04T23:56:11;22.00;55.61
65472;DHT22;52068;50.710;14.492;2022-10-04T23:58:38;21.98;55.78
